sensor_id;sensor_type;location;lat;lon;timestamp;P1;durP1;ratioP1;P2;durP2;ratioP2
58681;SDS011;44460;40.162;18.294;2023-03-23T00:01:37;228.73;;;35.42;;
58681;SDS011;44460;40.162;18.294;2023-03-23T00:04:02;290.45;;;39.33;;
58681;SDS011;44460;40.162;18.294;2023-03-23T00:06:28;245.43;;;37.58;;
58681;SDS011;44460;40.162;18.294;2023-03-23T00:08:58;185.75;;;32.10;;
58681;SDS011;44460;40.162;18.294;2023-03-23T00:11:27;254.13;;;36.22;;
58681;SDS011;44460;40.162;18.294;2023-03-23T00:13:57;128.48;;;33.35;;
58681;SDS011;44460;40.162;18.294;2023-03-23T00:16:24;162.10;;;34.22;;
58681;SDS011;44460;40.162;18.294;2023-03-23T00:19:00;247.55;;;35.83;;
58681;SDS011;44460;40.162;18.294;2023-03-23T00:21:27;283.83;;;33.90;;
58681;SDS011;44460;40.162;18.294;2023-03-23T00:24:00;232.25;;;32.60;;
58681;SDS011;44460;40.162;18.294;2023-03-23T00:26:26;206.52;;;32.95;;
58681;SDS011;44460;40.162;18.294;2023-03-23T00:28:54;133.43;;;26.85;;
58681;SDS011;44460;40.162;18.294;2023-03-23T00:31:19;159.07;;;28.23;;
58681;SDS011;44460;40.162;18.294;2023-03-23T00:33:45;81.07;;;26.38;;
58681;SDS011;44460;40.162;18.294;2023-03-23T00:36:11;104.28;;;27.23;;
58681;SDS011;44460;40.162;18.294;2023-03-23T00:38:37;77.38;;;23.90;;
58681;SDS011;44460;40.162;18.294;2023-03-23T00:41:03;49.63;;;24.40;;
58681;SDS011;44460;40.162;18.294;2023-03-23T00:43:29;39.17;;;20.20;;
58681;SDS011;44460;40.162;18.294;2023-03-23T00:45:55;41.50;;;21.48;;
58681;SDS011;44460;40.162;18.294;2023-03-23T00:48:21;34.40;;;20.60;;
58681;SDS011;44460;40.162;18.294;2023-03-23T00:50:47;44.92;;;21.10;;
58681;SDS011;44460;40.162;18.294;2023-03-23T00:53:12;49.67;;;23.83;;
58681;SDS011;44460;40.162;18.294;2023-03-23T00:55:40;32.78;;;20.27;;
58681;SDS011;44460;40.162;18.294;2023-03-23T00:58:06;32.67;;;22.80;;
58681;SDS011;44460;40.162;18.294;2023-03-23T01:00:31;39.47;;;23.92;;
58681;SDS011;44460;40.162;18.294;2023-03-23T01:02:57;84.72;;;26.20;;
58681;SDS011;44460;40.162;18.294;2023-03-23T01:05:22;43.75;;;25.60;;
58681;SDS011;44460;40.162;18.294;2023-03-23T01:07:48;44.13;;;24.42;;
58681;SDS011;44460;40.162;18.294;2023-03-23T01:10:13;32.95;;;23.55;;
58681;SDS011;44460;40.162;18.294;2023-03-23T01:12:44;115.65;;;26.48;;
58681;SDS011;44460;40.162;18.294;2023-03-23T01:15:16;80.28;;;25.30;;
58681;SDS011;44460;40.162;18.294;2023-03-23T01:17:42;94.53;;;26.13;;
58681;SDS011;44460;40.162;18.294;2023-03-23T01:20:08;53.83;;;27.92;;
58681;SDS011;44460;40.162;18.294;2023-03-23T01:22:34;47.65;;;29.73;;
58681;SDS011;44460;40.162;18.294;2023-03-23T01:25:00;42.30;;;27.00;;
58681;SDS011;44460;40.162;18.294;2023-03-23T01:27:25;38.47;;;28.10;;
58681;SDS011;44460;40.162;18.294;2023-03-23T01:29:51;37.28;;;27.58;;
58681;SDS011;44460;40.162;18.294;2023-03-23T01:32:16;46.10;;;27.05;;
58681;SDS011;44460;40.162;18.294;2023-03-23T01:34:42;45.50;;;30.52;;
58681;SDS011;44460;40.162;18.294;2023-03-23T01:37:07;49.75;;;32.40;;
58681;SDS011;44460;40.162;18.294;2023-03-23T01:39:33;41.20;;;26.58;;
58681;SDS011;44460;40.162;18.294;2023-03-23T01:42:00;32.85;;;25.65;;
58681;SDS011;44460;40.162;18.294;2023-03-23T01:46:58;51.92;;;24.15;;
58681;SDS011;44460;40.162;18.294;2023-03-23T01:49:24;75.00;;;23.98;;
58681;SDS011;44460;40.162;18.294;2023-03-23T01:51:56;154.45;;;24.63;;
58681;SDS011;44460;40.162;18.294;2023-03-23T01:54:24;271.42;;;32.28;;
58681;SDS011;44460;40.162;18.294;2023-03-23T01:56:52;217.10;;;32.28;;
58681;SDS011;44460;40.162;18.294;2023-03-23T01:59:19;118.75;;;26.85;;
58681;SDS011;44460;40.162;18.294;2023-03-23T02:01:52;63.97;;;25.33;;
58681;SDS011;44460;40.162;18.294;2023-03-23T02:04:19;106.33;;;26.57;;
58681;SDS011;44460;40.162;18.294;2023-03-23T02:06:45;82.30;;;25.60;;
58681;SDS011;44460;40.162;18.294;2023-03-23T02:09:16;52.95;;;23.10;;
58681;SDS011;44460;40.162;18.294;2023-03-23T02:11:46;87.00;;;25.83;;
58681;SDS011;44460;40.162;18.294;2023-03-23T02:14:13;69.82;;;23.98;;
58681;SDS011;44460;40.162;18.294;2023-03-23T02:16:41;75.55;;;26.48;;
58681;SDS011;44460;40.162;18.294;2023-03-23T02:26:50;41.95;;;30.30;;
58681;SDS011;44460;40.162;18.294;2023-03-23T02:29:40;40.83;;;30.80;;
58681;SDS011;44460;40.162;18.294;2023-03-23T02:32:09;45.80;;;33.08;;
58681;SDS011;44460;40.162;18.294;2023-03-23T02:37:03;44.72;;;32.20;;
58681;SDS011;44460;40.162;18.294;2023-03-23T02:39:33;45.33;;;32.42;;
58681;SDS011;44460;40.162;18.294;2023-03-23T02:42:10;42.92;;;30.25;;
58681;SDS011;44460;40.162;18.294;2023-03-23T02:44:38;47.90;;;33.10;;
58681;SDS011;44460;40.162;18.294;2023-03-23T02:47:06;43.28;;;31.67;;
58681;SDS011;44460;40.162;18.294;2023-03-23T02:49:33;50.22;;;32.88;;
58681;SDS011;44460;40.162;18.294;2023-03-23T02:52:02;45.80;;;30.90;;
58681;SDS011;44460;40.162;18.294;2023-03-23T02:54:28;36.38;;;28.38;;
58681;SDS011;44460;40.162;18.294;2023-03-23T02:56:54;37.50;;;28.30;;
58681;SDS011;44460;40.162;18.294;2023-03-23T02:59:26;39.92;;;28.67;;
58681;SDS011;44460;40.162;18.294;2023-03-23T03:02:02;39.25;;;27.15;;
58681;SDS011;44460;40.162;18.294;2023-03-23T03:04:28;37.85;;;27.65;;
58681;SDS011;44460;40.162;18.294;2023-03-23T03:07:06;40.10;;;27.85;;
58681;SDS011;44460;40.162;18.294;2023-03-23T03:09:45;39.97;;;27.55;;
58681;SDS011;44460;40.162;18.294;2023-03-23T03:12:24;39.38;;;27.77;;
58681;SDS011;44460;40.162;18.294;2023-03-23T03:15:02;43.22;;;28.10;;
58681;SDS011;44460;40.162;18.294;2023-03-23T03:17:32;36.67;;;25.70;;
58681;SDS011;44460;40.162;18.294;2023-03-23T03:20:01;37.42;;;27.17;;
58681;SDS011;44460;40.162;18.294;2023-03-23T03:22:33;36.78;;;26.45;;
58681;SDS011;44460;40.162;18.294;2023-03-23T03:24:59;36.80;;;25.80;;
58681;SDS011;44460;40.162;18.294;2023-03-23T03:27:25;35.22;;;25.75;;
58681;SDS011;44460;40.162;18.294;2023-03-23T03:30:02;33.13;;;24.92;;
58681;SDS011;44460;40.162;18.294;2023-03-23T03:32:41;35.58;;;24.80;;
58681;SDS011;44460;40.162;18.294;2023-03-23T03:35:09;33.33;;;25.08;;
58681;SDS011;44460;40.162;18.294;2023-03-23T03:37:35;33.28;;;23.83;;
58681;SDS011;44460;40.162;18.294;2023-03-23T03:40:06;35.92;;;24.35;;
58681;SDS011;44460;40.162;18.294;2023-03-23T03:42:37;32.97;;;24.42;;
58681;SDS011;44460;40.162;18.294;2023-03-23T03:45:02;35.20;;;23.73;;
58681;SDS011;44460;40.162;18.294;2023-03-23T03:47:28;33.70;;;24.60;;
58681;SDS011;44460;40.162;18.294;2023-03-23T03:49:53;29.85;;;22.67;;
58681;SDS011;44460;40.162;18.294;2023-03-23T03:52:19;31.23;;;22.88;;
58681;SDS011;44460;40.162;18.294;2023-03-23T03:54:45;32.47;;;23.17;;
58681;SDS011;44460;40.162;18.294;2023-03-23T03:57:11;36.00;;;22.70;;
58681;SDS011;44460;40.162;18.294;2023-03-23T03:59:49;30.20;;;21.83;;
58681;SDS011;44460;40.162;18.294;2023-03-23T04:02:14;27.30;;;20.80;;
58681;SDS011;44460;40.162;18.294;2023-03-23T04:04:45;30.42;;;20.42;;
58681;SDS011;44460;40.162;18.294;2023-03-23T04:07:11;36.78;;;21.25;;
58681;SDS011;44460;40.162;18.294;2023-03-23T04:09:39;32.15;;;21.60;;
58681;SDS011;44460;40.162;18.294;2023-03-23T04:12:05;29.63;;;21.58;;
58681;SDS011;44460;40.162;18.294;2023-03-23T04:14:49;28.17;;;20.85;;
58681;SDS011;44460;40.162;18.294;2023-03-23T04:17:14;27.05;;;19.48;;
58681;SDS011;44460;40.162;18.294;2023-03-23T04:19:42;22.70;;;18.38;;
58681;SDS011;44460;40.162;18.294;2023-03-23T04:22:08;28.33;;;21.33;;
58681;SDS011;44460;40.162;18.294;2023-03-23T04:24:36;25.50;;;19.98;;
58681;SDS011;44460;40.162;18.294;2023-03-23T04:27:04;30.48;;;20.40;;
58681;SDS011;44460;40.162;18.294;2023-03-23T04:29:31;28.13;;;20.45;;
58681;SDS011;44460;40.162;18.294;2023-03-23T04:32:04;27.27;;;19.75;;
58681;SDS011;44460;40.162;18.294;2023-03-23T04:34:36;29.17;;;21.35;;
58681;SDS011;44460;40.162;18.294;2023-03-23T04:37:01;27.60;;;20.45;;
58681;SDS011;44460;40.162;18.294;2023-03-23T04:39:29;30.23;;;21.20;;
58681;SDS011;44460;40.162;18.294;2023-03-23T04:41:58;26.48;;;20.83;;
58681;SDS011;44460;40.162;18.294;2023-03-23T04:44:35;29.02;;;19.98;;
58681;SDS011;44460;40.162;18.294;2023-03-23T04:47:09;28.35;;;19.42;;
58681;SDS011;44460;40.162;18.294;2023-03-23T04:49:42;29.63;;;21.08;;
58681;SDS011;44460;40.162;18.294;2023-03-23T04:52:17;26.63;;;19.90;;
58681;SDS011;44460;40.162;18.294;2023-03-23T04:54:48;26.60;;;20.35;;
58681;SDS011;44460;40.162;18.294;2023-03-23T04:57:15;25.88;;;19.60;;
58681;SDS011;44460;40.162;18.294;2023-03-23T04:59:48;29.77;;;21.73;;
58681;SDS011;44460;40.162;18.294;2023-03-23T05:02:17;29.85;;;20.65;;
58681;SDS011;44460;40.162;18.294;2023-03-23T05:07:17;28.75;;;20.60;;
58681;SDS011;44460;40.162;18.294;2023-03-23T05:09:49;29.17;;;21.10;;
58681;SDS011;44460;40.162;18.294;2023-03-23T05:12:17;33.13;;;21.83;;
58681;SDS011;44460;40.162;18.294;2023-03-23T05:14:55;26.05;;;19.85;;
58681;SDS011;44460;40.162;18.294;2023-03-23T05:17:24;28.20;;;20.70;;
58681;SDS011;44460;40.162;18.294;2023-03-23T05:19:52;36.72;;;21.48;;
58681;SDS011;44460;40.162;18.294;2023-03-23T05:22:41;30.25;;;21.70;;
58681;SDS011;44460;40.162;18.294;2023-03-23T05:25:07;28.38;;;21.30;;
58681;SDS011;44460;40.162;18.294;2023-03-23T05:27:40;28.50;;;21.40;;
58681;SDS011;44460;40.162;18.294;2023-03-23T05:30:23;30.67;;;21.02;;
58681;SDS011;44460;40.162;18.294;2023-03-23T05:32:50;25.15;;;19.05;;
58681;SDS011;44460;40.162;18.294;2023-03-23T05:35:41;27.10;;;18.77;;
58681;SDS011;44460;40.162;18.294;2023-03-23T05:38:07;27.83;;;18.35;;
58681;SDS011;44460;40.162;18.294;2023-03-23T05:40:32;25.67;;;19.15;;
58681;SDS011;44460;40.162;18.294;2023-03-23T05:43:04;27.55;;;19.48;;
58681;SDS011;44460;40.162;18.294;2023-03-23T05:45:47;22.42;;;17.17;;
58681;SDS011;44460;40.162;18.294;2023-03-23T05:48:12;20.35;;;16.55;;
58681;SDS011;44460;40.162;18.294;2023-03-23T05:50:38;22.60;;;16.77;;
58681;SDS011;44460;40.162;18.294;2023-03-23T05:53:04;22.88;;;16.25;;
58681;SDS011;44460;40.162;18.294;2023-03-23T05:55:32;23.35;;;16.15;;
58681;SDS011;44460;40.162;18.294;2023-03-23T05:58:07;20.20;;;15.75;;
58681;SDS011;44460;40.162;18.294;2023-03-23T06:00:36;23.02;;;15.85;;
58681;SDS011;44460;40.162;18.294;2023-03-23T06:03:17;21.13;;;15.07;;
58681;SDS011;44460;40.162;18.294;2023-03-23T06:05:49;20.35;;;14.77;;
58681;SDS011;44460;40.162;18.294;2023-03-23T06:08:18;21.95;;;15.10;;
58681;SDS011;44460;40.162;18.294;2023-03-23T06:10:44;22.02;;;14.48;;
58681;SDS011;44460;40.162;18.294;2023-03-23T06:13:11;22.27;;;14.35;;
58681;SDS011;44460;40.162;18.294;2023-03-23T06:15:47;20.42;;;14.07;;
58681;SDS011;44460;40.162;18.294;2023-03-23T06:18:32;21.80;;;13.82;;
58681;SDS011;44460;40.162;18.294;2023-03-23T06:21:31;26.25;;;14.90;;
58681;SDS011;44460;40.162;18.294;2023-03-23T06:24:08;25.10;;;14.45;;
58681;SDS011;44460;40.162;18.294;2023-03-23T06:26:36;23.13;;;14.18;;
58681;SDS011;44460;40.162;18.294;2023-03-23T06:29:05;22.35;;;13.20;;
58681;SDS011;44460;40.162;18.294;2023-03-23T06:31:42;21.38;;;14.43;;
58681;SDS011;44460;40.162;18.294;2023-03-23T06:34:08;20.88;;;12.90;;
58681;SDS011;44460;40.162;18.294;2023-03-23T06:36:55;19.52;;;12.75;;
58681;SDS011;44460;40.162;18.294;2023-03-23T06:39:56;17.20;;;11.48;;
58681;SDS011;44460;40.162;18.294;2023-03-23T06:42:30;16.02;;;10.85;;
58681;SDS011;44460;40.162;18.294;2023-03-23T06:45:30;16.95;;;10.80;;
58681;SDS011;44460;40.162;18.294;2023-03-23T06:48:25;17.23;;;10.95;;
58681;SDS011;44460;40.162;18.294;2023-03-23T06:50:51;16.42;;;10.35;;
58681;SDS011;44460;40.162;18.294;2023-03-23T06:53:19;17.20;;;9.02;;
58681;SDS011;44460;40.162;18.294;2023-03-23T06:55:47;16.95;;;9.77;;
58681;SDS011;44460;40.162;18.294;2023-03-23T06:58:12;20.73;;;10.02;;
58681;SDS011;44460;40.162;18.294;2023-03-23T07:00:38;16.08;;;9.98;;
58681;SDS011;44460;40.162;18.294;2023-03-23T07:03:04;18.23;;;10.48;;
58681;SDS011;44460;40.162;18.294;2023-03-23T07:05:31;14.65;;;10.00;;
58681;SDS011;44460;40.162;18.294;2023-03-23T07:07:58;13.83;;;9.77;;
58681;SDS011;44460;40.162;18.294;2023-03-23T07:10:33;16.13;;;10.48;;
58681;SDS011;44460;40.162;18.294;2023-03-23T07:13:00;19.33;;;11.05;;
58681;SDS011;44460;40.162;18.294;2023-03-23T07:15:28;14.48;;;10.20;;
58681;SDS011;44460;40.162;18.294;2023-03-23T07:17:56;14.85;;;9.63;;
58681;SDS011;44460;40.162;18.294;2023-03-23T07:20:29;14.95;;;9.90;;
58681;SDS011;44460;40.162;18.294;2023-03-23T07:22:54;15.40;;;9.68;;
58681;SDS011;44460;40.162;18.294;2023-03-23T07:25:34;16.17;;;9.95;;
58681;SDS011;44460;40.162;18.294;2023-03-23T07:28:01;26.05;;;10.75;;
58681;SDS011;44460;40.162;18.294;2023-03-23T07:30:27;14.23;;;9.30;;
58681;SDS011;44460;40.162;18.294;2023-03-23T07:35:20;15.73;;;9.65;;
58681;SDS011;44460;40.162;18.294;2023-03-23T07:37:55;20.80;;;9.93;;
58681;SDS011;44460;40.162;18.294;2023-03-23T07:40:21;15.45;;;9.68;;
58681;SDS011;44460;40.162;18.294;2023-03-23T07:42:54;16.35;;;9.70;;
58681;SDS011;44460;40.162;18.294;2023-03-23T07:45:46;16.75;;;9.48;;
58681;SDS011;44460;40.162;18.294;2023-03-23T07:50:39;18.13;;;9.93;;
58681;SDS011;44460;40.162;18.294;2023-03-23T07:53:08;15.68;;;9.70;;
58681;SDS011;44460;40.162;18.294;2023-03-23T07:55:35;13.35;;;8.63;;
58681;SDS011;44460;40.162;18.294;2023-03-23T07:58:04;17.38;;;9.23;;
58681;SDS011;44460;40.162;18.294;2023-03-23T08:00:30;13.15;;;8.35;;
58681;SDS011;44460;40.162;18.294;2023-03-23T08:02:56;14.10;;;9.10;;
58681;SDS011;44460;40.162;18.294;2023-03-23T08:05:25;14.43;;;8.32;;
58681;SDS011;44460;40.162;18.294;2023-03-23T08:08:17;12.85;;;7.85;;
58681;SDS011;44460;40.162;18.294;2023-03-23T08:10:43;14.90;;;8.48;;
58681;SDS011;44460;40.162;18.294;2023-03-23T08:13:34;13.57;;;8.07;;
58681;SDS011;44460;40.162;18.294;2023-03-23T08:16:23;13.82;;;8.27;;
58681;SDS011;44460;40.162;18.294;2023-03-23T08:19:12;14.00;;;8.90;;
58681;SDS011;44460;40.162;18.294;2023-03-23T08:22:10;13.15;;;7.75;;
58681;SDS011;44460;40.162;18.294;2023-03-23T08:24:58;18.00;;;7.90;;
58681;SDS011;44460;40.162;18.294;2023-03-23T08:27:34;21.13;;;7.75;;
58681;SDS011;44460;40.162;18.294;2023-03-23T08:30:14;18.35;;;8.68;;
58681;SDS011;44460;40.162;18.294;2023-03-23T08:32:53;10.32;;;6.72;;
58681;SDS011;44460;40.162;18.294;2023-03-23T08:35:45;11.43;;;7.03;;
58681;SDS011;44460;40.162;18.294;2023-03-23T08:38:31;13.20;;;7.10;;
58681;SDS011;44460;40.162;18.294;2023-03-23T08:41:16;13.52;;;6.63;;
58681;SDS011;44460;40.162;18.294;2023-03-23T08:44:08;12.75;;;8.13;;
58681;SDS011;44460;40.162;18.294;2023-03-23T08:46:51;19.67;;;7.32;;
58681;SDS011;44460;40.162;18.294;2023-03-23T08:49:40;15.73;;;7.43;;
58681;SDS011;44460;40.162;18.294;2023-03-23T08:52:26;20.02;;;8.70;;
58681;SDS011;44460;40.162;18.294;2023-03-23T08:54:55;11.48;;;6.95;;
58681;SDS011;44460;40.162;18.294;2023-03-23T08:57:35;12.82;;;7.60;;
58681;SDS011;44460;40.162;18.294;2023-03-23T09:00:26;10.60;;;7.22;;
58681;SDS011;44460;40.162;18.294;2023-03-23T09:03:13;15.63;;;11.20;;
58681;SDS011;44460;40.162;18.294;2023-03-23T09:06:09;15.55;;;7.63;;
58681;SDS011;44460;40.162;18.294;2023-03-23T09:08:44;16.27;;;7.80;;
58681;SDS011;44460;40.162;18.294;2023-03-23T09:11:13;14.48;;;8.02;;
58681;SDS011;44460;40.162;18.294;2023-03-23T09:13:39;13.55;;;8.00;;
58681;SDS011;44460;40.162;18.294;2023-03-23T09:16:06;15.13;;;8.20;;
58681;SDS011;44460;40.162;18.294;2023-03-23T09:18:32;11.65;;;7.50;;
58681;SDS011;44460;40.162;18.294;2023-03-23T09:20:59;12.88;;;8.35;;
58681;SDS011;44460;40.162;18.294;2023-03-23T09:23:25;13.23;;;8.23;;
58681;SDS011;44460;40.162;18.294;2023-03-23T09:25:52;12.10;;;7.93;;
58681;SDS011;44460;40.162;18.294;2023-03-23T09:28:18;31.92;;;7.75;;
58681;SDS011;44460;40.162;18.294;2023-03-23T09:30:44;12.52;;;7.97;;
58681;SDS011;44460;40.162;18.294;2023-03-23T09:33:10;16.90;;;8.27;;
58681;SDS011;44460;40.162;18.294;2023-03-23T09:35:36;18.23;;;7.75;;
58681;SDS011;44460;40.162;18.294;2023-03-23T09:38:03;14.13;;;7.70;;
58681;SDS011;44460;40.162;18.294;2023-03-23T09:40:31;18.15;;;8.00;;
58681;SDS011;44460;40.162;18.294;2023-03-23T09:50:45;10.48;;;6.45;;
58681;SDS011;44460;40.162;18.294;2023-03-23T09:53:22;12.80;;;7.30;;
58681;SDS011;44460;40.162;18.294;2023-03-23T09:55:48;12.43;;;6.90;;
58681;SDS011;44460;40.162;18.294;2023-03-23T10:00:42;14.27;;;6.45;;
58681;SDS011;44460;40.162;18.294;2023-03-23T10:03:14;12.75;;;6.50;;
58681;SDS011;44460;40.162;18.294;2023-03-23T10:05:44;15.73;;;6.97;;
58681;SDS011;44460;40.162;18.294;2023-03-23T10:08:14;11.77;;;6.40;;
58681;SDS011;44460;40.162;18.294;2023-03-23T10:15:49;11.38;;;6.10;;
58681;SDS011;44460;40.162;18.294;2023-03-23T10:18:17;10.55;;;5.68;;
58681;SDS011;44460;40.162;18.294;2023-03-23T10:25:52;10.02;;;6.28;;
58681;SDS011;44460;40.162;18.294;2023-03-23T10:28:21;11.43;;;6.20;;
58681;SDS011;44460;40.162;18.294;2023-03-23T10:30:54;9.40;;;6.55;;
58681;SDS011;44460;40.162;18.294;2023-03-23T10:33:34;19.48;;;5.80;;
58681;SDS011;44460;40.162;18.294;2023-03-23T10:36:06;14.88;;;6.45;;
58681;SDS011;44460;40.162;18.294;2023-03-23T10:38:38;10.98;;;6.13;;
58681;SDS011;44460;40.162;18.294;2023-03-23T10:41:06;9.65;;;5.60;;
58681;SDS011;44460;40.162;18.294;2023-03-23T10:43:34;24.88;;;6.88;;
58681;SDS011;44460;40.162;18.294;2023-03-23T10:46:01;14.50;;;6.95;;
58681;SDS011;44460;40.162;18.294;2023-03-23T10:48:30;10.88;;;6.20;;
58681;SDS011;44460;40.162;18.294;2023-03-23T10:50:59;13.23;;;5.78;;
58681;SDS011;44460;40.162;18.294;2023-03-23T10:53:42;11.75;;;6.40;;
58681;SDS011;44460;40.162;18.294;2023-03-23T10:58:49;13.90;;;5.53;;
58681;SDS011;44460;40.162;18.294;2023-03-23T11:01:14;12.05;;;5.90;;
58681;SDS011;44460;40.162;18.294;2023-03-23T11:03:44;13.77;;;6.25;;
58681;SDS011;44460;40.162;18.294;2023-03-23T11:06:11;11.30;;;6.53;;
58681;SDS011;44460;40.162;18.294;2023-03-23T11:08:54;16.05;;;7.75;;
58681;SDS011;44460;40.162;18.294;2023-03-23T11:13:56;14.20;;;5.60;;
58681;SDS011;44460;40.162;18.294;2023-03-23T11:16:29;10.35;;;5.70;;
58681;SDS011;44460;40.162;18.294;2023-03-23T11:18:56;11.07;;;5.38;;
58681;SDS011;44460;40.162;18.294;2023-03-23T11:21:22;9.50;;;5.10;;
58681;SDS011;44460;40.162;18.294;2023-03-23T11:23:55;13.32;;;5.63;;
58681;SDS011;44460;40.162;18.294;2023-03-23T11:26:30;9.65;;;5.25;;
58681;SDS011;44460;40.162;18.294;2023-03-23T11:28:58;10.05;;;5.82;;
58681;SDS011;44460;40.162;18.294;2023-03-23T11:31:26;13.10;;;6.53;;
58681;SDS011;44460;40.162;18.294;2023-03-23T11:33:54;9.98;;;5.38;;
58681;SDS011;44460;40.162;18.294;2023-03-23T11:36:20;10.60;;;5.40;;
58681;SDS011;44460;40.162;18.294;2023-03-23T11:38:51;10.63;;;5.22;;
58681;SDS011;44460;40.162;18.294;2023-03-23T11:41:18;12.10;;;5.53;;
58681;SDS011;44460;40.162;18.294;2023-03-23T11:43:45;13.65;;;5.65;;
58681;SDS011;44460;40.162;18.294;2023-03-23T11:46:15;13.57;;;5.53;;
58681;SDS011;44460;40.162;18.294;2023-03-23T11:51:17;10.00;;;5.28;;
58681;SDS011;44460;40.162;18.294;2023-03-23T11:58:46;13.45;;;5.45;;
58681;SDS011;44460;40.162;18.294;2023-03-23T12:01:29;10.73;;;5.05;;
58681;SDS011;44460;40.162;18.294;2023-03-23T12:09:08;10.18;;;4.47;;
58681;SDS011;44460;40.162;18.294;2023-03-23T12:18:57;10.63;;;3.83;;
58681;SDS011;44460;40.162;18.294;2023-03-23T12:26:47;8.48;;;3.97;;
58681;SDS011;44460;40.162;18.294;2023-03-23T12:29:18;12.20;;;5.85;;
58681;SDS011;44460;40.162;18.294;2023-03-23T12:37:38;10.02;;;4.00;;
58681;SDS011;44460;40.162;18.294;2023-03-23T12:44:47;7.60;;;3.75;;
58681;SDS011;44460;40.162;18.294;2023-03-23T12:47:27;8.65;;;4.35;;
58681;SDS011;44460;40.162;18.294;2023-03-23T12:49:59;6.65;;;3.83;;
58681;SDS011;44460;40.162;18.294;2023-03-23T12:52:33;7.18;;;3.42;;
58681;SDS011;44460;40.162;18.294;2023-03-23T12:55:05;8.18;;;3.92;;
58681;SDS011;44460;40.162;18.294;2023-03-23T13:00:28;9.40;;;5.57;;
58681;SDS011;44460;40.162;18.294;2023-03-23T13:03:06;9.13;;;3.80;;
58681;SDS011;44460;40.162;18.294;2023-03-23T13:05:38;9.18;;;3.90;;
58681;SDS011;44460;40.162;18.294;2023-03-23T13:10:36;7.00;;;3.78;;
58681;SDS011;44460;40.162;18.294;2023-03-23T13:13:03;8.05;;;3.78;;
58681;SDS011;44460;40.162;18.294;2023-03-23T13:15:47;7.68;;;3.63;;
58681;SDS011;44460;40.162;18.294;2023-03-23T13:18:18;6.85;;;3.40;;
58681;SDS011;44460;40.162;18.294;2023-03-23T13:20:58;6.63;;;3.47;;
58681;SDS011;44460;40.162;18.294;2023-03-23T13:23:28;7.72;;;3.72;;
58681;SDS011;44460;40.162;18.294;2023-03-23T13:25:55;9.05;;;3.63;;
58681;SDS011;44460;40.162;18.294;2023-03-23T13:28:26;7.50;;;3.65;;
58681;SDS011;44460;40.162;18.294;2023-03-23T13:33:37;6.18;;;3.22;;
58681;SDS011;44460;40.162;18.294;2023-03-23T13:36:10;8.20;;;3.30;;
58681;SDS011;44460;40.162;18.294;2023-03-23T13:38:36;6.68;;;3.20;;
58681;SDS011;44460;40.162;18.294;2023-03-23T13:41:10;5.72;;;2.67;;
58681;SDS011;44460;40.162;18.294;2023-03-23T13:43:36;6.32;;;3.05;;
58681;SDS011;44460;40.162;18.294;2023-03-23T13:48:42;12.98;;;3.15;;
58681;SDS011;44460;40.162;18.294;2023-03-23T13:51:23;6.75;;;2.80;;
58681;SDS011;44460;40.162;18.294;2023-03-23T13:53:49;6.95;;;3.17;;
58681;SDS011;44460;40.162;18.294;2023-03-23T13:58:49;6.93;;;3.20;;
58681;SDS011;44460;40.162;18.294;2023-03-23T14:01:16;10.43;;;2.97;;
58681;SDS011;44460;40.162;18.294;2023-03-23T14:03:43;5.78;;;3.03;;
58681;SDS011;44460;40.162;18.294;2023-03-23T14:06:13;7.20;;;3.33;;
58681;SDS011;44460;40.162;18.294;2023-03-23T14:09:04;6.00;;;3.07;;
58681;SDS011;44460;40.162;18.294;2023-03-23T14:11:30;8.80;;;4.15;;
58681;SDS011;44460;40.162;18.294;2023-03-23T14:16:23;21.92;;;4.20;;
58681;SDS011;44460;40.162;18.294;2023-03-23T14:18:59;8.02;;;3.42;;
58681;SDS011;44460;40.162;18.294;2023-03-23T14:24:15;7.80;;;3.55;;
58681;SDS011;44460;40.162;18.294;2023-03-23T14:26:41;5.63;;;3.28;;
58681;SDS011;44460;40.162;18.294;2023-03-23T14:29:09;13.15;;;9.02;;
58681;SDS011;44460;40.162;18.294;2023-03-23T14:31:36;8.02;;;3.28;;
58681;SDS011;44460;40.162;18.294;2023-03-23T14:34:09;6.45;;;3.53;;
58681;SDS011;44460;40.162;18.294;2023-03-23T14:36:36;6.50;;;3.47;;
58681;SDS011;44460;40.162;18.294;2023-03-23T14:41:28;11.52;;;3.28;;
58681;SDS011;44460;40.162;18.294;2023-03-23T14:43:54;6.13;;;3.42;;
58681;SDS011;44460;40.162;18.294;2023-03-23T14:46:19;11.10;;;3.53;;
58681;SDS011;44460;40.162;18.294;2023-03-23T14:48:45;8.43;;;3.90;;
58681;SDS011;44460;40.162;18.294;2023-03-23T14:51:17;7.80;;;4.43;;
58681;SDS011;44460;40.162;18.294;2023-03-23T14:53:43;8.85;;;4.07;;
58681;SDS011;44460;40.162;18.294;2023-03-23T14:56:12;8.40;;;4.75;;
58681;SDS011;44460;40.162;18.294;2023-03-23T14:58:38;11.10;;;4.45;;
58681;SDS011;44460;40.162;18.294;2023-03-23T15:01:08;8.23;;;4.45;;
58681;SDS011;44460;40.162;18.294;2023-03-23T15:03:37;7.25;;;4.20;;
58681;SDS011;44460;40.162;18.294;2023-03-23T15:06:05;7.53;;;4.22;;
58681;SDS011;44460;40.162;18.294;2023-03-23T15:13:43;7.35;;;4.10;;
58681;SDS011;44460;40.162;18.294;2023-03-23T15:16:12;11.05;;;4.70;;
58681;SDS011;44460;40.162;18.294;2023-03-23T15:18:38;8.95;;;4.13;;
58681;SDS011;44460;40.162;18.294;2023-03-23T15:21:09;13.13;;;5.00;;
58681;SDS011;44460;40.162;18.294;2023-03-23T15:23:35;11.35;;;4.47;;
58681;SDS011;44460;40.162;18.294;2023-03-23T15:26:06;7.72;;;4.43;;
58681;SDS011;44460;40.162;18.294;2023-03-23T15:28:32;10.65;;;4.55;;
58681;SDS011;44460;40.162;18.294;2023-03-23T15:31:04;8.68;;;3.67;;
58681;SDS011;44460;40.162;18.294;2023-03-23T15:33:34;11.55;;;4.65;;
58681;SDS011;44460;40.162;18.294;2023-03-23T15:36:04;7.30;;;4.25;;
58681;SDS011;44460;40.162;18.294;2023-03-23T15:38:31;12.43;;;6.25;;
58681;SDS011;44460;40.162;18.294;2023-03-23T15:40:58;8.23;;;4.35;;
58681;SDS011;44460;40.162;18.294;2023-03-23T15:43:25;8.18;;;4.75;;
58681;SDS011;44460;40.162;18.294;2023-03-23T15:48:25;7.63;;;4.78;;
58681;SDS011;44460;40.162;18.294;2023-03-23T15:50:51;7.35;;;4.30;;
58681;SDS011;44460;40.162;18.294;2023-03-23T15:53:27;6.80;;;3.55;;
58681;SDS011;44460;40.162;18.294;2023-03-23T15:55:53;7.93;;;3.95;;
58681;SDS011;44460;40.162;18.294;2023-03-23T15:58:19;9.27;;;3.95;;
58681;SDS011;44460;40.162;18.294;2023-03-23T16:00:44;9.02;;;4.55;;
58681;SDS011;44460;40.162;18.294;2023-03-23T16:03:21;9.38;;;4.55;;
58681;SDS011;44460;40.162;18.294;2023-03-23T16:05:49;8.32;;;4.03;;
58681;SDS011;44460;40.162;18.294;2023-03-23T16:08:14;8.38;;;4.03;;
58681;SDS011;44460;40.162;18.294;2023-03-23T16:10:41;8.23;;;4.40;;
58681;SDS011;44460;40.162;18.294;2023-03-23T16:13:06;9.52;;;4.88;;
58681;SDS011;44460;40.162;18.294;2023-03-23T16:15:32;11.07;;;4.15;;
58681;SDS011;44460;40.162;18.294;2023-03-23T16:17:57;9.98;;;4.00;;
58681;SDS011;44460;40.162;18.294;2023-03-23T16:20:23;8.00;;;4.07;;
58681;SDS011;44460;40.162;18.294;2023-03-23T16:22:50;10.90;;;6.03;;
58681;SDS011;44460;40.162;18.294;2023-03-23T16:25:15;6.90;;;3.70;;
58681;SDS011;44460;40.162;18.294;2023-03-23T16:27:43;7.75;;;4.53;;
58681;SDS011;44460;40.162;18.294;2023-03-23T16:30:20;10.07;;;5.57;;